Time,TemperatureF,DewpointF,PressureIn,WindDirection,WindDirectionDegrees,WindSpeedMPH,WindSpeedGustMPH,Humidity,HourlyPrecipIn,Conditions,Clouds,dailyrainin,SoftwareType,DateUTC
2015-08-30 00:04:00,83.0,75.0,30.02,ESE,118,9.0,17.0,76,-99.99,,,-99.99,,2015-08-30 04:04:00,
2015-08-30 00:13:00,83.0,75.0,30.02,ESE,118,9.0,17.0,76,-99.99,,,-99.99,,2015-08-30 04:13:00,
2015-08-30 00:34:00,83.0,75.0,30.02,SE,125,7.0,15.0,76,-99.99,,,-99.99,,2015-08-30 04:34:00,
2015-08-30 00:44:00,82.0,75.0,30.01,SE,124,7.0,15.0,76,-99.99,,,-99.99,,2015-08-30 04:44:00,
2015-08-30 00:56:00,82.0,75.0,30.00,ESE,122,5.0,10.0,77,-99.99,,,-99.99,,2015-08-30 04:56:00,
2015-08-30 01:04:00,82.0,75.0,30.00,ESE,122,5.0,10.0,77,-99.99,,,-99.99,,2015-08-30 05:04:00,
2015-08-30 01:13:00,82.0,75.0,30.00,East,100,5.0,12.0,78,-99.99,,,-99.99,,2015-08-30 05:13:00,
2015-08-30 01:24:00,82.0,75.0,30.00,East,100,5.0,12.0,78,-99.99,,,-99.99,,2015-08-30 05:24:00,
2015-08-30 01:33:00,82.0,75.0,30.00,East,100,5.0,12.0,78,-99.99,,,-99.99,,2015-08-30 05:33:00,
2015-08-30 01:44:00,82.0,75.0,30.00,ESE,117,5.0,11.0,78,-99.99,,,-99.99,,2015-08-30 05:44:00,
2015-08-30 01:54:00,78.0,74.0,30.00,WSW,240,7.0,12.0,87,-99.99,,,-99.99,,2015-08-30 05:54:00,
2015-08-30 02:04:00,75.0,73.0,30.00,NW,304,4.0,7.0,92,-99.99,,,-99.99,,2015-08-30 06:04:00,
2015-08-30 02:13:00,75.0,73.0,30.00,NW,304,4.0,7.0,92,-99.99,,,-99.99,,2015-08-30 06:13:00,
2015-08-30 02:23:00,75.0,73.0,30.00,NW,304,4.0,7.0,92,-99.99,,,-99.99,,2015-08-30 06:23:00,
2015-08-30 02:44:00,75.0,73.0,29.98,SE,146,2.0,10.0,92,-99.99,,,-99.99,,2015-08-30 06:44:00,
2015-08-30 02:54:00,76.0,74.0,29.97,WSW,240,1.0,2.0,92,-99.99,,,-99.99,,2015-08-30 06:54:00,
2015-08-30 03:04:00,77.0,75.0,29.96,ESE,112,6.0,15.0,91,-99.99,,,-99.99,,2015-08-30 07:04:00,
2015-08-30 03:13:00,77.0,75.0,29.96,ESE,112,6.0,15.0,91,-99.99,,,-99.99,,2015-08-30 07:13:00,
2015-08-30 03:33:00,80.0,75.0,29.95,ESE,111,8.0,15.0,84,-99.99,,,-99.99,,2015-08-30 07:33:00,
2015-08-30 03:54:00,79.0,75.0,29.95,SE,128,9.0,19.0,87,-99.99,,,-99.99,,2015-08-30 07:54:00,
2015-08-30 04:03:00,79.0,75.0,29.95,SE,128,9.0,19.0,87,-99.99,,,-99.99,,2015-08-30 08:03:00,
2015-08-30 04:13:00,79.0,75.0,29.95,SE,128,9.0,19.0,87,-99.99,,,-99.99,,2015-08-30 08:13:00,
2015-08-30 04:33:00,79.0,74.0,29.95,SE,126,11.0,21.0,84,-99.99,,,-99.99,,2015-08-30 08:33:00,
2015-08-30 04:44:00,79.0,75.0,29.95,SE,146,11.0,20.0,87,-99.99,,,-99.99,,2015-08-30 08:44:00,
2015-08-30 04:53:00,78.0,74.0,29.95,SSE,148,13.0,24.0,87,-99.99,,,-99.99,,2015-08-30 08:53:00,
2015-08-30 05:03:00,76.0,71.0,29.95,SSE,154,12.0,21.0,86,-99.99,,,-99.99,,2015-08-30 09:03:00,
2015-08-30 05:13:00,76.0,71.0,29.95,SSE,154,12.0,21.0,86,-99.99,,,-99.99,,2015-08-30 09:13:00,
2015-08-30 05:23:00,76.0,71.0,29.95,SSE,154,12.0,21.0,86,-99.99,,,-99.99,,2015-08-30 09:23:00,
2015-08-30 05:33:00,76.0,71.0,29.94,SSE,152,8.0,12.0,83,-99.99,,,-99.99,,2015-08-30 09:33:00,
2015-08-30 05:44:00,77.0,72.0,29.94,SSE,157,7.0,13.0,84,-99.99,,,-99.99,,2015-08-30 09:44:00,
2015-08-30 05:54:00,77.0,73.0,29.94,SSE,159,7.0,14.0,86,-99.99,,,-99.99,,2015-08-30 09:54:00,
2015-08-30 06:04:00,78.0,74.0,29.94,SSE,160,9.0,17.0,87,-99.99,,,-99.99,,2015-08-30 10:04:00,
2015-08-30 06:13:00,78.0,74.0,29.94,SSE,160,9.0,-999.0,87,-99.99,,,-99.99,,2015-08-30 10:13:00,
2015-08-30 06:24:00,78.0,74.0,29.94,SSE,160,9.0,17.0,87,-99.99,,,-99.99,,2015-08-30 10:24:00,
2015-08-30 06:44:00,77.0,71.0,29.94,SSE,161,9.0,17.0,83,-99.99,,,-99.99,,2015-08-30 10:44:00,
2015-08-30 06:54:00,76.0,72.0,29.95,SSE,164,10.0,16.0,85,-99.99,,,-99.99,,2015-08-30 10:54:00,
2015-08-30 07:04:00,76.0,73.0,29.95,SSE,151,10.0,19.0,89,-99.99,,,-99.99,,2015-08-30 11:04:00,
2015-08-30 07:13:00,76.0,73.0,29.95,SSE,151,10.0,19.0,89,-99.99,,,-99.99,,2015-08-30 11:13:00,
2015-08-30 07:34:00,76.0,73.0,29.94,SSE,150,7.0,12.0,91,-99.99,,,-99.99,,2015-08-30 11:34:00,
2015-08-30 07:44:00,76.0,73.0,29.94,SSE,151,7.0,14.0,91,-99.99,,,-99.99,,2015-08-30 11:44:00,
2015-08-30 07:54:00,76.0,74.0,29.93,SSE,161,6.0,10.0,92,-99.99,,,-99.99,,2015-08-30 11:54:00,
2015-08-30 08:04:00,77.0,74.0,29.94,South,187,5.0,10.0,92,-99.99,,,-99.99,,2015-08-30 12:04:00,
2015-08-30 08:13:00,77.0,74.0,29.94,South,187,5.0,10.0,92,-99.99,,,-99.99,,2015-08-30 12:13:00,
2015-08-30 08:24:00,77.0,74.0,29.94,South,187,5.0,10.0,92,-99.99,,,-99.99,,2015-08-30 12:24:00,
2015-08-30 08:34:00,76.0,74.0,29.95,SW,214,5.0,10.0,92,-99.99,,,-99.99,,2015-08-30 12:34:00,
2015-08-30 08:44:00,76.0,74.0,29.96,SW,228,4.0,6.0,92,-99.99,,,-99.99,,2015-08-30 12:44:00,
2015-08-30 08:54:00,76.0,74.0,29.96,West,263,3.0,7.0,92,-99.99,,,-99.99,,2015-08-30 12:54:00,
2015-08-30 09:04:00,76.0,74.0,29.96,West,279,2.0,7.0,92,-99.99,,,-99.99,,2015-08-30 13:04:00,
2015-08-30 09:13:00,76.0,74.0,29.96,West,279,2.0,7.0,92,-99.99,,,-99.99,,2015-08-30 13:13:00,
2015-08-30 09:23:00,76.0,74.0,29.96,West,279,2.0,7.0,92,-99.99,,,-99.99,,2015-08-30 13:23:00,
2015-08-30 09:44:00,76.0,74.0,29.97,NW,319,3.0,5.0,93,-99.99,,,-99.99,,2015-08-30 13:44:00,
2015-08-30 09:54:00,79.0,76.0,29.98,SSE,155,6.0,14.0,90,-99.99,,,-99.99,,2015-08-30 13:54:00,
2015-08-30 10:04:00,79.0,76.0,29.98,SSE,155,6.0,14.0,90,-99.99,,,-99.99,,2015-08-30 14:04:00,
2015-08-30 10:13:00,79.0,76.0,29.98,SSE,155,6.0,14.0,90,-99.99,,,-99.99,,2015-08-30 14:13:00,
2015-08-30 10:23:00,79.0,76.0,29.98,SSE,155,6.0,14.0,90,-99.99,,,-99.99,,2015-08-30 14:23:00,
2015-08-30 10:34:00,81.0,76.0,29.98,SSE,159,7.0,13.0,82,-99.99,,,-99.99,,2015-08-30 14:34:00,
2015-08-30 10:44:00,82.0,75.0,29.98,SSE,156,9.0,17.0,81,-99.99,,,-99.99,,2015-08-30 14:44:00,
2015-08-30 10:54:00,82.0,76.0,29.99,SSE,150,10.0,17.0,80,-99.99,,,-99.99,,2015-08-30 14:54:00,
2015-08-30 11:03:00,83.0,76.0,30.00,SSE,149,13.0,21.0,79,-99.99,,,-99.99,,2015-08-30 15:03:00,
2015-08-30 11:13:00,83.0,76.0,30.00,SSE,149,13.0,21.0,79,-99.99,,,-99.99,,2015-08-30 15:13:00,
2015-08-30 11:23:00,83.0,76.0,30.00,SSE,149,13.0,21.0,79,-99.99,,,-99.99,,2015-08-30 15:23:00,
2015-08-30 11:33:00,83.0,76.0,30.00,SSE,152,11.0,17.0,79,-99.99,,,-99.99,,2015-08-30 15:33:00,
2015-08-30 11:44:00,82.0,75.0,30.00,SSE,155,14.0,25.0,80,-99.99,,,-99.99,,2015-08-30 15:44:00,
2015-08-30 11:54:00,83.0,77.0,30.00,SSE,154,12.0,22.0,82,-99.99,,,-99.99,,2015-08-30 15:54:00,
2015-08-30 12:04:00,83.0,77.0,30.00,SSE,154,12.0,22.0,82,-99.99,,,-99.99,,2015-08-30 16:04:00,
2015-08-30 12:14:00,83.0,77.0,30.00,SSE,154,12.0,22.0,82,-99.99,,,-99.99,,2015-08-30 16:14:00,
2015-08-30 12:24:00,83.0,77.0,30.00,SSE,154,12.0,22.0,82,-99.99,,,-99.99,,2015-08-30 16:24:00,
2015-08-30 12:33:00,84.0,76.0,29.99,SE,144,12.0,21.0,78,-99.99,,,-99.99,,2015-08-30 16:33:00,
2015-08-30 12:47:00,76.0,72.0,30.01,South,172,11.0,21.0,87,-99.99,,,-99.99,,2015-08-30 16:47:00,
2015-08-30 12:54:00,76.0,72.0,30.01,South,172,11.0,21.0,87,-99.99,,,-99.99,,2015-08-30 16:54:00,
2015-08-30 13:04:00,77.0,73.0,30.01,SSE,164,12.0,29.0,88,-99.99,,,-99.99,,2015-08-30 17:04:00,
2015-08-30 13:15:00,77.0,73.0,30.01,SSE,164,12.0,29.0,88,-99.99,,,-99.99,,2015-08-30 17:15:00,
2015-08-30 13:24:00,77.0,73.0,30.01,SSE,164,12.0,29.0,88,-99.99,,,-99.99,,2015-08-30 17:24:00,
2015-08-30 13:34:00,76.0,73.0,30.01,SSE,167,13.0,23.0,90,-99.99,,,-99.99,,2015-08-30 17:34:00,
2015-08-30 13:54:00,78.0,75.0,30.02,SSE,153,10.0,19.0,89,-99.99,,,-99.99,,2015-08-30 17:54:00,
2015-08-30 14:04:00,80.0,75.0,30.01,SSE,155,9.0,19.0,85,-99.99,,,-99.99,,2015-08-30 18:04:00,
2015-08-30 14:13:00,80.0,75.0,30.01,SSE,155,9.0,19.0,85,-99.99,,,-99.99,,2015-08-30 18:13:00,
2015-08-30 14:24:00,80.0,75.0,30.01,SSE,155,9.0,19.0,85,-99.99,,,-99.99,,2015-08-30 18:24:00,
2015-08-30 14:34:00,80.0,75.0,30.00,SSE,165,8.0,16.0,83,-99.99,,,-99.99,,2015-08-30 18:34:00,
2015-08-30 14:44:00,81.0,75.0,30.00,SSE,153,7.0,12.0,81,-99.99,,,-99.99,,2015-08-30 18:44:00,
2015-08-30 14:54:00,82.0,75.0,30.00,SSE,147,6.0,12.0,79,-99.99,,,-99.99,,2015-08-30 18:54:00,
2015-08-30 15:04:00,82.0,75.0,30.00,SSE,148,7.0,14.0,77,-99.99,,,-99.99,,2015-08-30 19:04:00,
2015-08-30 15:13:00,82.0,75.0,30.00,SSE,148,7.0,14.0,77,-99.99,,,-99.99,,2015-08-30 19:13:00,
2015-08-30 15:23:00,82.0,75.0,30.00,SSE,148,7.0,14.0,77,-99.99,,,-99.99,,2015-08-30 19:23:00,
2015-08-30 15:34:00,79.0,74.0,30.00,SE,145,11.0,24.0,82,-99.99,,,-99.99,,2015-08-30 19:34:00,
2015-08-30 15:44:00,78.0,75.0,30.00,SE,145,7.0,16.0,88,-99.99,,,-99.99,,2015-08-30 19:44:00,
2015-08-30 15:54:00,80.0,76.0,29.99,SE,140,7.0,11.0,87,-99.99,,,-99.99,,2015-08-30 19:54:00,
2015-08-30 16:04:00,81.0,76.0,29.98,SE,146,9.0,15.0,84,-99.99,,,-99.99,,2015-08-30 20:04:00,
2015-08-30 16:13:00,81.0,76.0,29.98,SE,146,9.0,15.0,84,-99.99,,,-99.99,,2015-08-30 20:13:00,
2015-08-30 16:23:00,81.0,76.0,29.98,SE,146,9.0,15.0,84,-99.99,,,-99.99,,2015-08-30 20:23:00,
2015-08-30 16:44:00,78.0,73.0,29.98,SSW,200,12.0,25.0,85,-99.99,,,-99.99,,2015-08-30 20:44:00,
2015-08-30 17:03:00,74.0,72.0,29.99,South,184,7.0,12.0,93,-99.99,,,-99.99,,2015-08-30 21:03:00,
2015-08-30 17:13:00,74.0,72.0,29.99,South,184,7.0,12.0,93,-99.99,,,-99.99,,2015-08-30 21:13:00,
2015-08-30 17:23:00,74.0,72.0,29.99,South,184,7.0,12.0,93,-99.99,,,-99.99,,2015-08-30 21:23:00,
2015-08-30 17:34:00,75.0,72.0,29.99,South,181,6.0,13.0,92,-99.99,,,-99.99,,2015-08-30 21:34:00,
2015-08-30 17:54:00,75.0,73.0,29.97,South,179,11.0,17.0,92,-99.99,,,-99.99,,2015-08-30 21:54:00,
2015-08-30 18:03:00,74.0,72.0,29.97,SSW,195,10.0,20.0,92,-99.99,,,-99.99,,2015-08-30 22:03:00,
2015-08-30 18:13:00,74.0,72.0,29.97,SSW,195,10.0,20.0,92,-99.99,,,-99.99,,2015-08-30 22:13:00,
2015-08-30 18:23:00,74.0,72.0,29.97,SSW,195,10.0,20.0,92,-99.99,,,-99.99,,2015-08-30 22:23:00,
2015-08-30 18:34:00,74.0,72.0,29.98,SSW,194,7.0,13.0,92,-99.99,,,-99.99,,2015-08-30 22:34:00,
2015-08-30 18:44:00,74.0,72.0,29.98,South,183,6.0,9.0,93,-99.99,,,-99.99,,2015-08-30 22:44:00,
2015-08-30 18:57:00,74.0,72.0,29.99,South,173,4.0,6.0,93,-99.99,,,-99.99,,2015-08-30 22:57:00,
2015-08-30 19:03:00,74.0,72.0,29.99,South,173,4.0,6.0,93,-99.99,,,-99.99,,2015-08-30 23:03:00,
2015-08-30 19:13:00,74.0,72.0,29.99,South,173,4.0,6.0,93,-99.99,,,-99.99,,2015-08-30 23:13:00,
2015-08-30 19:23:00,74.0,72.0,29.99,South,173,4.0,6.0,93,-99.99,,,-99.99,,2015-08-30 23:23:00,
2015-08-30 19:36:00,74.0,72.0,29.99,South,171,4.0,7.0,93,-99.99,,,-99.99,,2015-08-30 23:36:00,
2015-08-30 19:54:00,74.0,72.0,29.98,South,176,4.0,8.0,92,-99.99,,,-99.99,,2015-08-30 23:54:00,
2015-08-30 20:04:00,74.0,72.0,29.98,SSE,161,3.0,5.0,92,-99.99,,,-99.99,,2015-08-31 00:04:00,
2015-08-30 20:13:00,74.0,72.0,-100.00,SSE,161,3.0,5.0,92,-99.99,,,-99.99,,2015-08-31 00:13:00,
2015-08-30 20:23:00,74.0,72.0,29.98,SSE,161,3.0,5.0,92,-99.99,,,-99.99,,2015-08-31 00:23:00,
2015-08-30 20:33:00,74.0,72.0,29.98,South,173,3.0,7.0,92,-99.99,,,-99.99,,2015-08-31 00:33:00,
2015-08-30 20:44:00,75.0,72.0,29.98,South,187,4.0,7.0,92,-99.99,,,-99.99,,2015-08-31 00:44:00,
2015-08-30 20:55:00,75.0,73.0,29.99,South,190,5.0,9.0,92,-99.99,,,-99.99,,2015-08-31 00:55:00,
2015-08-30 21:03:00,75.0,72.0,29.99,SSE,167,4.0,8.0,91,-99.99,,,-99.99,,2015-08-31 01:03:00,
2015-08-30 21:13:00,75.0,72.0,29.99,SSE,167,4.0,8.0,91,-99.99,,,-99.99,,2015-08-31 01:13:00,
2015-08-30 21:33:00,75.0,72.0,30.00,SSE,148,5.0,7.0,91,-99.99,,,-99.99,,2015-08-31 01:33:00,
2015-08-30 21:43:00,75.0,72.0,30.01,SSE,148,4.0,7.0,91,-99.99,,,-99.99,,2015-08-31 01:43:00,
2015-08-30 21:54:00,75.0,72.0,-100.00,SSE,153,4.0,7.0,91,-99.99,,,-99.99,,2015-08-31 01:54:00,
2015-08-30 22:03:00,75.0,72.0,30.02,SSE,147,3.0,6.0,91,-99.99,,,-99.99,,2015-08-31 02:03:00,
2015-08-30 22:13:00,75.0,72.0,30.02,SSE,147,3.0,6.0,91,-99.99,,,-99.99,,2015-08-31 02:13:00,
2015-08-30 22:23:00,75.0,72.0,30.02,SSE,147,3.0,6.0,91,-99.99,,,-99.99,,2015-08-31 02:23:00,
2015-08-30 22:33:00,75.0,72.0,30.02,SSE,157,3.0,5.0,91,-99.99,,,-99.99,,2015-08-31 02:33:00,
2015-08-30 22:44:00,75.0,73.0,30.02,SSE,159,3.0,6.0,91,-99.99,,,-99.99,,2015-08-31 02:44:00,
2015-08-30 22:54:00,76.0,73.0,30.02,SSE,165,3.0,6.0,90,-99.99,,,-99.99,,2015-08-31 02:54:00,
2015-08-30 23:03:00,76.0,73.0,30.02,South,183,2.0,4.0,90,-99.99,,,-99.99,,2015-08-31 03:03:00,
2015-08-30 23:13:00,76.0,73.0,30.02,South,183,2.0,4.0,90,-99.99,,,-99.99,,2015-08-31 03:13:00,